Duque de Caxias, Brazil
Current Conditions -  °F | °C
As of 2:00 AM on Sunday 26 Oct 2014 (Local Time) from SBGL Reporting Station
Broken Clouds Broken Clouds  
Wind Chill: 23°   Ceiling: 10000
Heat Index: 23°   Visibility: 6mi
Dew Point: 18°   Wind: 3mph
Humidity: 73%   Direction: 270°W
Pressure: 29.91"   Gusts: NA
Location:  22.77°S, 43.31°W
Report Text: SBGL 260400Z 27003KT 9999 FEW030 BKN100 23/18 Q1013
Loading
Personal Weather Stations






























Interactive Weather Map
Tropical Storm Tracking
New forecast layout! Learn more

10-Day Weather Forecast

Advertisements
Track Severe Weather on mobile